createdAt,value
2022-11-28T00:01:21.521Z,7.71
2022-11-28T00:03:48.274Z,7.83
2022-11-28T00:06:15.150Z,7.74
2022-11-28T00:08:41.719Z,7.78
2022-11-28T00:11:11.057Z,7.83
2022-11-28T00:13:37.844Z,7.92
2022-11-28T00:16:05.954Z,7.95
2022-11-28T00:18:32.350Z,7.87
2022-11-28T00:21:00.513Z,7.79
2022-11-28T00:23:26.895Z,7.93
2022-11-28T00:25:58.681Z,7.85
2022-11-28T00:28:25.185Z,7.86
2022-11-28T00:30:51.843Z,7.72
2022-11-28T00:33:18.402Z,7.97
2022-11-28T00:35:45.273Z,8.10
2022-11-28T00:38:11.792Z,8.03
2022-11-28T00:40:38.394Z,8.16
2022-11-28T00:43:04.986Z,8.15
2022-11-28T00:45:31.719Z,8.15
2022-11-28T00:47:58.792Z,8.04
2022-11-28T00:50:25.303Z,8.05
2022-11-28T00:52:51.827Z,8.07
2022-11-28T00:55:18.409Z,8.15
2022-11-28T00:57:46.758Z,8.05
2022-11-28T01:00:13.822Z,7.81
2022-11-28T01:02:40.356Z,7.71
2022-11-28T01:05:07.342Z,7.72
2022-11-28T01:07:34.245Z,7.75
2022-11-28T01:10:00.875Z,7.97
2022-11-28T01:12:27.387Z,8.20
2022-11-28T01:14:54.011Z,7.90
2022-11-28T01:17:20.533Z,7.67
2022-11-28T01:19:47.106Z,7.69
2022-11-28T01:22:13.622Z,7.75
2022-11-28T01:24:40.385Z,7.85
2022-11-28T01:27:08.136Z,8.02
2022-11-28T01:29:35.839Z,7.74
2022-11-28T01:32:02.438Z,7.66
2022-11-28T01:34:28.998Z,7.75
2022-11-28T01:36:55.621Z,7.91
2022-11-28T01:39:22.183Z,8.01
2022-11-28T01:41:48.886Z,8.07
2022-11-28T01:44:15.872Z,8.02
2022-11-28T01:46:43.008Z,8.04
2022-11-28T01:49:12.792Z,8.14
2022-11-28T01:51:41.418Z,7.97
2022-11-28T01:54:08.253Z,7.81
2022-11-28T01:56:42.558Z,7.77
2022-11-28T01:59:11.999Z,7.74
2022-11-28T02:01:39.482Z,7.82
2022-11-28T02:04:06.364Z,7.69
2022-11-28T02:06:33.215Z,7.57
2022-11-28T02:08:59.847Z,7.60
2022-11-28T02:11:35.407Z,7.80
2022-11-28T02:14:04.795Z,7.60
2022-11-28T02:16:48.348Z,7.65
2022-11-28T02:19:35.073Z,7.53
2022-11-28T02:22:29.398Z,7.53
2022-11-28T02:25:35.634Z,7.52
2022-11-28T02:28:35.605Z,7.49
2022-11-28T02:31:27.386Z,7.45
2022-11-28T02:33:57.207Z,7.48
2022-11-28T02:36:34.446Z,7.37
2022-11-28T02:39:19.053Z,7.52
2022-11-28T02:42:03.171Z,7.49
2022-11-28T02:44:38.990Z,7.52
2022-11-28T02:47:10.862Z,7.43
2022-11-28T02:49:39.921Z,7.52
2022-11-28T02:52:13.521Z,7.51
2022-11-28T02:54:41.262Z,7.43
2022-11-28T02:57:08.390Z,7.43
2022-11-28T02:59:37.854Z,7.40
2022-11-28T03:02:11.013Z,7.56
2022-11-28T03:04:43.894Z,7.62
2022-11-28T03:07:13.795Z,7.47
2022-11-28T03:10:06.418Z,7.39
2022-11-28T03:12:52.905Z,7.52
2022-11-28T03:15:25.141Z,7.39
2022-11-28T03:18:10.392Z,7.26
2022-11-28T03:20:47.304Z,7.24
2022-11-28T03:23:20.187Z,7.26
2022-11-28T03:25:59.414Z,7.27
2022-11-28T03:28:31.552Z,7.49
2022-11-28T03:31:21.531Z,7.41
2022-11-28T03:33:51.907Z,7.40
2022-11-28T03:36:26.947Z,7.46
2022-11-28T03:39:04.119Z,7.46
2022-11-28T03:41:39.895Z,7.42
2022-11-28T03:44:14.951Z,7.41
2022-11-28T03:46:46.055Z,7.50
2022-11-28T03:49:16.450Z,7.45
2022-11-28T03:51:47.262Z,7.51
2022-11-28T03:54:17.325Z,7.45
2022-11-28T03:57:08.755Z,7.44
2022-11-28T03:59:47.202Z,7.39
2022-11-28T04:02:34.480Z,7.61
2022-11-28T04:05:19.253Z,7.63
2022-11-28T04:07:56.151Z,7.58
2022-11-28T04:10:25.824Z,7.60
2022-11-28T04:12:59.587Z,7.55
2022-11-28T04:15:43.270Z,7.53
2022-11-28T04:18:40.983Z,7.48
2022-11-28T04:21:12.871Z,7.58
2022-11-28T04:23:42.260Z,7.44
2022-11-28T04:26:15.536Z,7.55
2022-11-28T04:28:44.632Z,7.45
2022-11-28T04:31:12.021Z,7.69
2022-11-28T04:33:43.975Z,7.77
2022-11-28T04:36:11.413Z,7.83
2022-11-28T04:38:40.049Z,7.76
2022-11-28T04:41:12.238Z,7.56
2022-11-28T04:43:48.474Z,7.61
2022-11-28T04:46:19.109Z,7.54
2022-11-28T04:48:45.843Z,7.45
2022-11-28T04:51:21.468Z,7.29
2022-11-28T04:54:01.925Z,7.52
2022-11-28T04:56:33.702Z,7.32
2022-11-28T04:59:01.116Z,7.40
2022-11-28T05:01:29.587Z,7.29
2022-11-28T05:03:56.355Z,7.29
2022-11-28T05:06:28.401Z,7.29
2022-11-28T05:08:55.215Z,7.34
2022-11-28T05:11:21.782Z,7.41
2022-11-28T05:13:48.814Z,7.37
2022-11-28T05:16:15.692Z,7.40
2022-11-28T05:18:42.512Z,7.36
2022-11-28T05:21:09.179Z,7.28
2022-11-28T05:23:39.979Z,7.29
2022-11-28T05:26:11.831Z,7.32
2022-11-28T05:28:38.765Z,7.27
2022-11-28T05:31:06.204Z,7.39
2022-11-28T05:33:33.513Z,7.33
2022-11-28T05:36:12.556Z,7.50
2022-11-28T05:38:39.874Z,7.47
2022-11-28T05:41:07.086Z,7.70
2022-11-28T05:43:33.614Z,7.63
2022-11-28T05:46:01.044Z,7.60
2022-11-28T05:48:28.178Z,7.67
2022-11-28T05:50:54.735Z,7.69
2022-11-28T05:53:21.396Z,7.48
2022-11-28T05:55:48.272Z,7.67
2022-11-28T05:58:15.386Z,7.66
2022-11-28T06:00:41.950Z,7.57
2022-11-28T06:03:09.037Z,7.41
2022-11-28T06:05:43.760Z,7.46
2022-11-28T06:08:12.334Z,7.62
2022-11-28T06:10:38.987Z,7.66
2022-11-28T06:13:06.346Z,7.58
2022-11-28T06:15:37.574Z,7.62
2022-11-28T06:18:04.685Z,7.75
2022-11-28T06:20:31.989Z,7.66
2022-11-28T06:22:59.229Z,7.49
2022-11-28T06:25:25.785Z,7.28
2022-11-28T06:27:52.351Z,7.34
2022-11-28T06:30:18.948Z,7.39
2022-11-28T06:32:45.633Z,7.31
2022-11-28T06:35:12.204Z,7.50
2022-11-28T06:37:38.720Z,7.61
2022-11-28T06:40:05.793Z,7.39
2022-11-28T06:42:32.354Z,7.38
2022-11-28T06:44:58.942Z,7.29
2022-11-28T06:47:25.455Z,7.33
2022-11-28T06:49:51.999Z,7.25
2022-11-28T06:52:18.589Z,7.43
2022-11-28T06:54:45.460Z,7.38
2022-11-28T06:57:12.624Z,7.29
2022-11-28T06:59:39.548Z,7.38
2022-11-28T07:02:07.923Z,7.43
2022-11-28T07:04:34.774Z,7.43
2022-11-28T07:07:01.741Z,7.35
2022-11-28T07:09:28.304Z,7.34
2022-11-28T07:11:55.106Z,7.35
2022-11-28T07:14:21.842Z,7.47
2022-11-28T07:16:49.279Z,7.66
2022-11-28T07:19:16.316Z,7.54
2022-11-28T07:21:43.545Z,7.77
2022-11-28T07:24:10.036Z,7.64
2022-11-28T07:26:38.066Z,7.68
2022-11-28T07:29:07.135Z,7.87
2022-11-28T07:31:33.916Z,7.91
2022-11-28T07:34:03.205Z,7.79
2022-11-28T07:36:30.427Z,7.71
2022-11-28T07:38:59.462Z,7.87
2022-11-28T07:41:28.827Z,7.90
2022-11-28T07:43:58.538Z,7.94
2022-11-28T07:46:26.257Z,7.83
2022-11-28T07:48:53.309Z,7.83
2022-11-28T07:51:25.711Z,7.78
2022-11-28T07:53:52.786Z,7.83
2022-11-28T07:56:23.503Z,7.87
2022-11-28T07:58:51.018Z,7.93
2022-11-28T08:01:22.984Z,7.89
2022-11-28T08:03:49.719Z,7.97
2022-11-28T08:06:18.065Z,7.99
2022-11-28T08:08:47.017Z,8.01
2022-11-28T08:11:14.881Z,8.23
2022-11-28T08:13:41.628Z,8.16
2022-11-28T08:16:17.241Z,8.31
2022-11-28T08:18:44.278Z,8.26
2022-11-28T08:21:13.782Z,8.38
2022-11-28T08:23:41.188Z,8.51
2022-11-28T08:26:09.543Z,8.25
2022-11-28T08:28:36.542Z,8.40
2022-11-28T08:31:10.569Z,8.38
2022-11-28T08:33:37.256Z,8.40
2022-11-28T08:36:08.363Z,8.40
2022-11-28T08:38:37.116Z,8.41
2022-11-28T08:41:05.864Z,8.47
2022-11-28T08:43:34.332Z,8.68
2022-11-28T08:46:01.455Z,8.65
2022-11-28T08:48:28.131Z,8.77
2022-11-28T08:50:54.735Z,8.79
2022-11-28T08:53:21.270Z,9.01
2022-11-28T08:55:49.864Z,8.88
2022-11-28T08:58:16.454Z,9.09
2022-11-28T09:00:43.060Z,9.15
2022-11-28T09:03:14.230Z,9.09
2022-11-28T09:05:45.990Z,9.13
2022-11-28T09:08:13.582Z,9.09
2022-11-28T09:10:41.230Z,9.19
2022-11-28T09:13:09.139Z,9.40
2022-11-28T09:15:39.639Z,9.28
2022-11-28T09:18:06.401Z,9.35
2022-11-28T09:20:33.660Z,9.27
2022-11-28T09:23:00.318Z,9.32
2022-11-28T09:25:27.132Z,9.39
2022-11-28T09:27:54.225Z,9.35
2022-11-28T09:30:23.633Z,9.24
2022-11-28T09:32:50.219Z,9.39
2022-11-28T09:35:17.713Z,9.41
2022-11-28T09:37:45.311Z,9.24
2022-11-28T09:40:21.889Z,9.51
2022-11-28T09:42:48.494Z,9.50
2022-11-28T09:45:20.145Z,9.42
2022-11-28T09:47:50.570Z,9.63
2022-11-28T09:50:24.160Z,9.53
2022-11-28T09:53:01.753Z,9.66
2022-11-28T09:55:39.536Z,9.60
2022-11-28T09:58:14.573Z,9.68
2022-11-28T10:00:54.174Z,9.75
2022-11-28T10:03:25.329Z,9.78
2022-11-28T10:06:13.197Z,9.90
2022-11-28T10:08:58.165Z,10.09
2022-11-28T10:11:56.336Z,10.19
2022-11-28T10:15:04.369Z,10.25
2022-11-28T10:17:50.422Z,10.23
2022-11-28T10:20:24.219Z,10.55
2022-11-28T10:22:59.431Z,10.42
2022-11-28T10:25:34.183Z,10.26
2022-11-28T10:28:01.722Z,10.16
2022-11-28T10:30:36.577Z,10.30
2022-11-28T10:33:14.863Z,10.02
2022-11-28T10:35:48.416Z,9.82
2022-11-28T10:38:16.679Z,9.87
2022-11-28T10:41:00.798Z,10.07
2022-11-28T10:43:36.492Z,10.00
2022-11-28T10:46:32.802Z,10.10
2022-11-28T10:49:05.811Z,10.36
2022-11-28T10:51:37.820Z,10.46
2022-11-28T10:54:42.178Z,10.40
2022-11-28T10:57:35.270Z,10.47
2022-11-28T11:00:16.336Z,10.49
2022-11-28T11:02:57.647Z,10.61
2022-11-28T11:05:27.032Z,10.68
2022-11-28T11:07:55.861Z,10.95
2022-11-28T11:10:31.471Z,10.88
2022-11-28T11:12:58.755Z,10.82
2022-11-28T11:15:29.810Z,11.12
2022-11-28T11:17:57.235Z,11.10
2022-11-28T11:20:23.712Z,11.18
2022-11-28T11:23:02.515Z,11.17
2022-11-28T11:25:31.741Z,10.98
2022-11-28T11:28:03.273Z,10.91
2022-11-28T11:30:41.748Z,10.98
2022-11-28T11:33:15.966Z,10.86
2022-11-28T11:35:45.347Z,10.82
2022-11-28T11:38:20.975Z,10.62
2022-11-28T11:40:48.957Z,10.24
2022-11-28T11:43:21.503Z,10.33
2022-11-28T11:45:52.422Z,10.41
2022-11-28T11:48:35.293Z,10.42
2022-11-28T11:51:01.877Z,10.37
2022-11-28T11:53:28.572Z,10.30
2022-11-28T11:55:56.136Z,10.53
2022-11-28T11:58:26.687Z,10.34
2022-11-28T12:00:56.495Z,10.46
2022-11-28T12:03:35.166Z,10.54
2022-11-28T12:06:26.941Z,10.26
2022-11-28T12:09:13.774Z,10.49
2022-11-28T12:11:46.953Z,10.42
2022-11-28T12:14:24.644Z,10.70
2022-11-28T12:17:25.694Z,10.75
2022-11-28T12:20:41.278Z,10.52
2022-11-28T12:23:21.654Z,10.38
2022-11-28T12:25:54.543Z,10.47
2022-11-28T12:28:57.964Z,10.49
2022-11-28T12:32:01.522Z,10.55
2022-11-28T12:35:09.379Z,10.51
2022-11-28T12:40:41.378Z,10.54
2022-11-28T12:43:47.566Z,10.49
2022-11-28T12:46:30.652Z,10.64
2022-11-28T12:49:01.712Z,10.59
2022-11-28T12:51:40.327Z,10.49
2022-11-28T12:54:26.065Z,10.56
2022-11-28T12:57:04.643Z,10.72
2022-11-28T12:59:50.931Z,10.80
2022-11-28T13:02:32.481Z,10.84
2022-11-28T13:05:17.670Z,10.69
2022-11-28T13:08:15.651Z,10.69
2022-11-28T13:11:14.491Z,10.81
2022-11-28T13:13:52.698Z,10.93
2022-11-28T13:16:42.199Z,10.81
2022-11-28T13:19:34.644Z,10.78
2022-11-28T13:22:23.580Z,10.86
2022-11-28T13:25:16.498Z,10.96
2022-11-28T13:27:49.802Z,10.76
2022-11-28T13:30:23.488Z,11.07
2022-11-28T13:33:14.561Z,11.02
2022-11-28T13:35:43.191Z,10.97
2022-11-28T13:41:59.531Z,11.06
2022-11-28T13:44:22.023Z,11.15
2022-11-28T13:46:51.641Z,11.05
2022-11-28T13:49:24.591Z,10.84
2022-11-28T13:52:19.131Z,10.91
2022-11-28T13:54:53.802Z,10.85
2022-11-28T13:57:29.422Z,10.75
2022-11-28T14:00:04.407Z,10.87
2022-11-28T14:02:44.244Z,11.02
2022-11-28T14:05:38.729Z,10.92
2022-11-28T14:08:07.180Z,10.97
2022-11-28T14:10:49.207Z,10.73
2022-11-28T14:13:22.819Z,10.91
2022-11-28T14:16:11.277Z,10.83
2022-11-28T14:19:02.545Z,10.77
2022-11-28T14:21:41.720Z,10.67
2022-11-28T14:24:26.995Z,10.66
2022-11-28T14:27:01.313Z,10.73
2022-11-28T14:29:38.416Z,10.81
2022-11-28T14:34:53.675Z,10.84
2022-11-28T14:37:27.080Z,10.69
2022-11-28T14:39:55.675Z,10.63
2022-11-28T14:42:58.326Z,10.63
2022-11-28T14:45:44.498Z,10.80
2022-11-28T14:48:23.707Z,10.93
2022-11-28T14:50:56.227Z,10.83
2022-11-28T14:53:34.489Z,10.67
2022-11-28T14:56:16.031Z,10.59
2022-11-28T14:58:50.467Z,10.58
2022-11-28T15:01:48.463Z,10.62
2022-11-28T15:04:34.392Z,10.57
2022-11-28T15:07:02.746Z,10.58
2022-11-28T15:09:44.363Z,10.39
2022-11-28T15:12:37.124Z,10.45
2022-11-28T15:15:07.817Z,10.36
2022-11-28T15:17:35.204Z,10.38
2022-11-28T15:20:09.834Z,10.33
2022-11-28T15:22:43.528Z,10.36
2022-11-28T15:25:29.145Z,10.31
2022-11-28T15:28:13.307Z,10.13
2022-11-28T15:30:52.011Z,10.30
2022-11-28T15:33:20.954Z,10.34
2022-11-28T15:36:00.308Z,10.22
2022-11-28T15:38:29.600Z,10.30
2022-11-28T15:40:58.676Z,10.07
2022-11-28T15:43:26.381Z,10.07
2022-11-28T15:46:00.247Z,10.14
2022-11-28T15:48:40.209Z,10.18
2022-11-28T15:51:18.924Z,10.01
2022-11-28T15:53:45.661Z,9.98
2022-11-28T15:56:15.752Z,10.05
2022-11-28T15:58:43.822Z,9.97
2022-11-28T16:01:22.517Z,10.08
2022-11-28T16:04:01.747Z,9.93
2022-11-28T16:06:41.311Z,9.95
2022-11-28T16:09:18.062Z,9.89
2022-11-28T16:11:47.042Z,9.76
2022-11-28T16:14:22.243Z,9.79
2022-11-28T16:16:59.252Z,9.86
2022-11-28T16:19:34.742Z,9.94
2022-11-28T16:22:08.571Z,9.90
2022-11-28T16:24:47.227Z,9.96
2022-11-28T16:27:39.976Z,9.91
2022-11-28T16:30:27.720Z,9.91
2022-11-28T16:32:56.821Z,9.88
2022-11-28T16:35:30.679Z,9.79
2022-11-28T16:38:06.412Z,9.65
2022-11-28T16:40:34.963Z,9.77
2022-11-28T16:43:04.306Z,9.89
2022-11-28T16:45:32.600Z,9.74
2022-11-28T16:48:13.737Z,9.66
2022-11-28T16:51:07.644Z,9.68
2022-11-28T16:53:46.450Z,9.65
2022-11-28T16:56:31.286Z,9.55
2022-11-28T16:59:14.147Z,9.60
2022-11-28T17:01:43.935Z,9.64
2022-11-28T17:04:30.902Z,9.61
2022-11-28T17:06:59.375Z,9.82
2022-11-28T17:09:25.914Z,9.82
2022-11-28T17:11:59.090Z,9.75
2022-11-28T17:14:25.728Z,9.70
2022-11-28T17:16:52.285Z,9.84
2022-11-28T17:19:19.063Z,9.88
2022-11-28T17:21:47.883Z,9.69
2022-11-28T17:24:35.476Z,9.70
2022-11-28T17:27:03.196Z,9.85
2022-11-28T17:29:29.849Z,9.70
2022-11-28T17:31:58.823Z,9.77
2022-11-28T17:34:27.955Z,9.83
2022-11-28T17:36:55.004Z,9.85
2022-11-28T17:39:21.827Z,9.75
2022-11-28T17:41:48.694Z,9.80
2022-11-28T17:44:24.640Z,9.73
2022-11-28T17:46:54.967Z,9.73
2022-11-28T17:49:22.463Z,9.82
2022-11-28T17:51:52.934Z,9.64
2022-11-28T17:54:21.187Z,9.58
2022-11-28T17:56:49.463Z,9.71
2022-11-28T17:59:18.280Z,9.66
2022-11-28T18:01:45.053Z,9.66
2022-11-28T18:04:11.865Z,9.67
2022-11-28T18:06:38.778Z,9.59
2022-11-28T18:09:11.748Z,9.55
2022-11-28T18:11:39.938Z,9.55
2022-11-28T18:14:06.900Z,9.64
2022-11-28T18:16:35.457Z,9.71
2022-11-28T18:19:04.260Z,9.80
2022-11-28T18:21:32.134Z,9.83
2022-11-28T18:24:00.164Z,9.67
2022-11-28T18:26:28.823Z,9.73
2022-11-28T18:28:55.770Z,9.79
2022-11-28T18:31:24.530Z,9.84
2022-11-28T18:33:51.551Z,9.82
2022-11-28T18:36:26.078Z,9.69
2022-11-28T18:38:57.350Z,9.65
2022-11-28T18:41:24.382Z,9.66
2022-11-28T18:43:58.294Z,9.81
2022-11-28T18:46:27.571Z,9.77
2022-11-28T18:48:54.505Z,9.74
2022-11-28T18:51:25.482Z,9.79
2022-11-28T18:53:55.698Z,9.80
2022-11-28T18:56:23.306Z,9.91
2022-11-28T18:58:51.833Z,9.96
2022-11-28T19:01:29.034Z,9.58
2022-11-28T19:03:57.869Z,9.50
2022-11-28T19:06:24.638Z,9.58
2022-11-28T19:08:57.277Z,9.79
2022-11-28T19:11:28.503Z,9.70
2022-11-28T19:13:56.798Z,9.73
2022-11-28T19:16:30.465Z,9.48
2022-11-28T19:18:58.117Z,9.55
2022-11-28T19:21:27.772Z,9.57
2022-11-28T19:23:56.811Z,9.56
2022-11-28T19:26:25.328Z,9.69
2022-11-28T19:28:55.866Z,9.57
2022-11-28T19:31:28.528Z,9.61
2022-11-28T19:34:06.971Z,9.73
2022-11-28T19:36:36.332Z,9.72
2022-11-28T19:39:04.681Z,9.65
2022-11-28T19:41:32.288Z,9.59
2022-11-28T19:43:59.291Z,9.65
2022-11-28T19:46:31.887Z,9.49
2022-11-28T19:49:03.536Z,9.38
2022-11-28T19:51:30.159Z,9.39
2022-11-28T19:54:03.098Z,9.36
2022-11-28T19:56:32.251Z,9.40
2022-11-28T19:58:59.046Z,9.35
2022-11-28T20:01:25.904Z,9.41
2022-11-28T20:03:53.787Z,9.47
2022-11-28T20:06:25.046Z,9.52
2022-11-28T20:08:53.703Z,9.64
2022-11-28T20:11:23.221Z,9.78
2022-11-28T20:13:54.830Z,9.76
2022-11-28T20:16:21.621Z,9.64
2022-11-28T20:18:48.283Z,9.70
2022-11-28T20:21:17.257Z,9.76
2022-11-28T20:23:46.342Z,9.73
2022-11-28T20:26:14.115Z,9.72
2022-11-28T20:28:41.701Z,9.75
2022-11-28T20:31:24.461Z,9.70
2022-11-28T20:33:53.949Z,9.76
2022-11-28T20:36:22.762Z,9.79
2022-11-28T20:38:50.199Z,9.84
2022-11-28T20:41:19.755Z,9.69
2022-11-28T20:43:47.606Z,9.64
2022-11-28T20:46:17.562Z,9.66
2022-11-28T20:48:44.510Z,9.68
2022-11-28T20:51:17.038Z,9.60
2022-11-28T20:53:43.782Z,9.54
2022-11-28T20:56:16.386Z,9.56
2022-11-28T20:58:43.249Z,9.72
2022-11-28T21:01:15.504Z,9.63
2022-11-28T21:03:42.586Z,9.58
2022-11-28T21:06:09.494Z,9.53
2022-11-28T21:08:36.720Z,9.49
2022-11-28T21:11:09.561Z,9.65
2022-11-28T21:13:36.071Z,9.56
2022-11-28T21:16:07.316Z,9.53
2022-11-28T21:18:35.573Z,9.52
2022-11-28T21:21:10.216Z,9.54
2022-11-28T21:23:37.956Z,9.55
2022-11-28T21:26:10.198Z,9.57
2022-11-28T21:28:38.370Z,9.55
2022-11-28T21:31:07.176Z,9.58
2022-11-28T21:33:35.043Z,9.56
2022-11-28T21:36:08.663Z,9.66
2022-11-28T21:39:01.130Z,9.64
2022-11-28T21:41:32.311Z,9.78
2022-11-28T21:44:24.142Z,9.71
2022-11-28T21:46:56.610Z,9.65
2022-11-28T21:49:24.573Z,9.63
2022-11-28T21:52:13.619Z,10.00
2022-11-28T21:54:42.222Z,10.06
2022-11-28T21:57:42.982Z,9.82
2022-11-28T22:00:52.657Z,9.65
2022-11-28T22:03:21.139Z,9.65
2022-11-28T22:05:49.256Z,9.75
2022-11-28T22:08:16.008Z,9.84
2022-11-28T22:10:42.708Z,9.68
2022-11-28T22:13:11.340Z,9.72
2022-11-28T22:15:45.319Z,9.62
2022-11-28T22:18:13.514Z,9.96
2022-11-28T22:20:43.714Z,9.88
2022-11-28T22:23:13.250Z,9.67
2022-11-28T22:25:42.085Z,9.55
2022-11-28T22:28:09.265Z,9.68
2022-11-28T22:30:37.427Z,9.60
2022-11-28T22:33:03.902Z,9.57
2022-11-28T22:35:30.620Z,9.49
2022-11-28T22:37:57.846Z,9.48
2022-11-28T22:40:24.748Z,9.67
2022-11-28T22:42:54.558Z,9.77
2022-11-28T22:45:22.289Z,9.80
2022-11-28T22:48:00.009Z,9.64
2022-11-28T22:50:27.941Z,9.66
2022-11-28T22:52:54.612Z,9.62
2022-11-28T22:55:25.383Z,9.75
2022-11-28T22:57:59.935Z,9.88
2022-11-28T23:00:27.657Z,9.71
2022-11-28T23:02:54.972Z,9.63
2022-11-28T23:05:25.395Z,9.59
2022-11-28T23:07:55.312Z,9.66
2022-11-28T23:10:47.037Z,9.56
2022-11-28T23:13:15.975Z,9.52
2022-11-28T23:15:46.161Z,9.51
2022-11-28T23:18:16.960Z,9.52
2022-11-28T23:20:44.749Z,9.50
2022-11-28T23:23:12.448Z,9.49
2022-11-28T23:25:40.039Z,9.46
2022-11-28T23:28:08.027Z,9.56
2022-11-28T23:30:35.375Z,9.51
2022-11-28T23:33:07.392Z,9.44
2022-11-28T23:35:34.052Z,9.46
2022-11-28T23:38:01.191Z,9.52
2022-11-28T23:40:57.527Z,9.63
2022-11-28T23:43:24.217Z,9.59
2022-11-28T23:45:54.139Z,9.72
2022-11-28T23:48:21.227Z,9.90
2022-11-28T23:50:47.932Z,9.89
2022-11-28T23:53:15.956Z,9.89
2022-11-28T23:55:45.513Z,9.96
2022-11-28T23:58:38.053Z,9.95
